OEJN/JED METAR and TAF weather

Enter ICAO airport designator
Station Type Date Time Source
OEJN METAR 2022/06/28 15:00 UTC NOAA

OEJN 281500Z 33010KT CAVOK 38/18 Q1002 NOSIG


Station Type Date Time Source
OEJN Decoded METAR 2022/06/28 15:00 UTC NOAA

Jeddah King Abdul Aziz International Airport , Saudi Arabia (OEJN) 21-42N 039-11E 17M
Jun 28, 2022 - 11:00 AM EDT / 2022.06.28 1500 UTC
Wind: from the NNW (330 degrees) at 12 MPH (10 KT):0
Visibility: greater than 7 mile(s):0
Temperature: 100 F (38 C)
Heat index: 102.9 F (39.4 C):1
Dew Point: 64 F (18 C)
Relative Humidity: 31%
Pressure (altimeter): 29.59 in. Hg (1002 hPa)
ob: OEJN 281500Z 33010KT CAVOK 38/18 Q1002 NOSIG
cycle: 15

Station Type Date Time Source
OEJN TAF 2022/06/28 12:33 UTC NOAA

TAF OEJN 281100Z 2812/2918 30014KT CAVOK
BECMG 2818/2820 01006KT
BECMG 2906/2908 30014KT

Example: see airport list